Wilbur by the Sea, Florida
Current Conditions -  °F | °C
As of 10:47 AM on Thursday 23 Oct 2014 (Local Time) from KEVB Reporting Station
Few Clouds Few Clouds  
Wind Chill: 75°   Ceiling: Unl
Heat Index: 75°   Visibility: 10mi
Dew Point: 55°   Wind: 13mph
Humidity: 50%   Direction: 40°NE
Pressure: 30.04"   Gusts: NA
Location:  29.1091°N, 80.9979°W
Report Text: KEVB 231447Z 04011KT 10SM FEW040 24/13 A3004
Loading
Personal Weather Stations






























Interactive Weather Map
Tropical Storm Tracking
New forecast layout! Learn more

10-Day Weather Forecast

Advertisements
Track Severe Weather on mobile